sensor_id;sensor_type;location;lat;lon;timestamp;P1;durP1;ratioP1;P2;durP2;ratioP2
52438;SDS011;38359;53.150;6.504;2022-09-09T00:04:32;16.20;;;10.23;;
52438;SDS011;38359;53.150;6.504;2022-09-09T00:13:28;12.82;;;10.23;;
52438;SDS011;38359;53.150;6.504;2022-09-09T00:16:27;16.73;;;10.52;;
52438;SDS011;38359;53.150;6.504;2022-09-09T00:21:54;17.40;;;11.18;;
52438;SDS011;38359;53.150;6.504;2022-09-09T00:30:13;21.33;;;11.90;;
52438;SDS011;38359;53.150;6.504;2022-09-09T00:32:50;18.88;;;10.80;;
52438;SDS011;38359;53.150;6.504;2022-09-09T00:35:30;16.27;;;12.00;;
52438;SDS011;38359;53.150;6.504;2022-09-09T00:38:10;18.88;;;11.30;;
52438;SDS011;38359;53.150;6.504;2022-09-09T00:40:42;18.38;;;11.70;;
52438;SDS011;38359;53.150;6.504;2022-09-09T00:43:32;17.48;;;11.93;;
52438;SDS011;38359;53.150;6.504;2022-09-09T00:49:43;13.70;;;10.80;;
52438;SDS011;38359;53.150;6.504;2022-09-09T00:52:40;17.73;;;11.57;;
52438;SDS011;38359;53.150;6.504;2022-09-09T00:55:43;14.20;;;10.85;;
52438;SDS011;38359;53.150;6.504;2022-09-09T00:58:18;18.48;;;11.45;;
52438;SDS011;38359;53.150;6.504;2022-09-09T01:00:45;19.45;;;11.75;;
52438;SDS011;38359;53.150;6.504;2022-09-09T01:03:22;19.80;;;10.77;;
52438;SDS011;38359;53.150;6.504;2022-09-09T01:09:04;13.43;;;9.63;;
52438;SDS011;38359;53.150;6.504;2022-09-09T01:18:00;16.02;;;10.45;;
52438;SDS011;38359;53.150;6.504;2022-09-09T01:26:59;13.65;;;9.88;;
52438;SDS011;38359;53.150;6.504;2022-09-09T01:29:27;14.50;;;10.10;;
52438;SDS011;38359;53.150;6.504;2022-09-09T01:31:58;16.75;;;10.07;;
52438;SDS011;38359;53.150;6.504;2022-09-09T01:34:26;15.40;;;10.05;;
52438;SDS011;38359;53.150;6.504;2022-09-09T01:37:07;14.50;;;10.40;;
52438;SDS011;38359;53.150;6.504;2022-09-09T01:39:36;17.17;;;9.95;;
52438;SDS011;38359;53.150;6.504;2022-09-09T01:42:05;16.80;;;10.30;;
52438;SDS011;38359;53.150;6.504;2022-09-09T01:44:34;15.50;;;9.90;;
52438;SDS011;38359;53.150;6.504;2022-09-09T01:47:02;17.85;;;10.15;;
52438;SDS011;38359;53.150;6.504;2022-09-09T01:49:28;13.48;;;10.60;;
52438;SDS011;38359;53.150;6.504;2022-09-09T01:51:55;13.35;;;9.80;;
52438;SDS011;38359;53.150;6.504;2022-09-09T01:54:23;16.55;;;10.73;;
52438;SDS011;38359;53.150;6.504;2022-09-09T01:56:57;17.30;;;10.77;;
52438;SDS011;38359;53.150;6.504;2022-09-09T02:00:21;14.35;;;10.65;;
52438;SDS011;38359;53.150;6.504;2022-09-09T02:05:48;15.07;;;10.43;;
52438;SDS011;38359;53.150;6.504;2022-09-09T02:08:25;14.20;;;10.38;;
52438;SDS011;38359;53.150;6.504;2022-09-09T02:11:11;16.50;;;11.00;;
52438;SDS011;38359;53.150;6.504;2022-09-09T02:13:46;13.30;;;10.90;;
52438;SDS011;38359;53.150;6.504;2022-09-09T02:21:37;14.88;;;10.23;;
52438;SDS011;38359;53.150;6.504;2022-09-09T02:24:08;20.80;;;11.60;;
52438;SDS011;38359;53.150;6.504;2022-09-09T02:26:36;15.40;;;10.18;;
52438;SDS011;38359;53.150;6.504;2022-09-09T02:29:08;15.52;;;11.60;;
52438;SDS011;38359;53.150;6.504;2022-09-09T02:31:40;18.63;;;11.68;;
52438;SDS011;38359;53.150;6.504;2022-09-09T02:34:08;21.73;;;12.75;;
52438;SDS011;38359;53.150;6.504;2022-09-09T02:36:36;18.15;;;11.50;;
52438;SDS011;38359;53.150;6.504;2022-09-09T02:39:06;14.40;;;11.32;;
52438;SDS011;38359;53.150;6.504;2022-09-09T02:41:35;15.25;;;11.20;;
52438;SDS011;38359;53.150;6.504;2022-09-09T02:44:11;19.45;;;11.77;;
52438;SDS011;38359;53.150;6.504;2022-09-09T02:58:14;17.95;;;11.85;;
52438;SDS011;38359;53.150;6.504;2022-09-09T03:00:43;15.65;;;10.93;;
52438;SDS011;38359;53.150;6.504;2022-09-09T03:03:11;22.50;;;11.10;;
52438;SDS011;38359;53.150;6.504;2022-09-09T03:05:38;20.40;;;11.30;;
52438;SDS011;38359;53.150;6.504;2022-09-09T03:08:04;17.73;;;10.57;;
52438;SDS011;38359;53.150;6.504;2022-09-09T03:10:31;18.13;;;11.45;;
52438;SDS011;38359;53.150;6.504;2022-09-09T03:12:57;22.92;;;11.07;;
52438;SDS011;38359;53.150;6.504;2022-09-09T03:15:23;20.63;;;10.68;;
52438;SDS011;38359;53.150;6.504;2022-09-09T03:17:54;17.60;;;11.00;;
52438;SDS011;38359;53.150;6.504;2022-09-09T03:20:20;18.38;;;9.88;;
52438;SDS011;38359;53.150;6.504;2022-09-09T03:22:46;15.10;;;10.38;;
52438;SDS011;38359;53.150;6.504;2022-09-09T03:25:11;16.90;;;9.73;;
52438;SDS011;38359;53.150;6.504;2022-09-09T03:27:37;17.70;;;10.02;;
52438;SDS011;38359;53.150;6.504;2022-09-09T03:30:03;15.18;;;10.05;;
52438;SDS011;38359;53.150;6.504;2022-09-09T03:32:30;16.25;;;9.75;;
52438;SDS011;38359;53.150;6.504;2022-09-09T03:34:56;14.55;;;9.80;;
52438;SDS011;38359;53.150;6.504;2022-09-09T03:37:22;14.70;;;8.55;;
52438;SDS011;38359;53.150;6.504;2022-09-09T03:39:48;15.68;;;8.45;;
52438;SDS011;38359;53.150;6.504;2022-09-09T03:42:14;12.82;;;8.63;;
52438;SDS011;38359;53.150;6.504;2022-09-09T03:44:44;11.20;;;8.05;;
52438;SDS011;38359;53.150;6.504;2022-09-09T03:47:18;16.17;;;8.32;;
52438;SDS011;38359;53.150;6.504;2022-09-09T03:49:46;11.65;;;7.82;;
52438;SDS011;38359;53.150;6.504;2022-09-09T03:52:13;14.15;;;8.15;;
52438;SDS011;38359;53.150;6.504;2022-09-09T03:54:40;13.02;;;7.55;;
52438;SDS011;38359;53.150;6.504;2022-09-09T03:57:08;10.85;;;7.45;;
52438;SDS011;38359;53.150;6.504;2022-09-09T03:59:35;13.68;;;7.57;;
52438;SDS011;38359;53.150;6.504;2022-09-09T04:02:01;15.65;;;7.88;;
52438;SDS011;38359;53.150;6.504;2022-09-09T04:04:28;10.35;;;6.85;;
52438;SDS011;38359;53.150;6.504;2022-09-09T04:06:53;11.75;;;6.55;;
52438;SDS011;38359;53.150;6.504;2022-09-09T04:09:19;14.32;;;6.72;;
52438;SDS011;38359;53.150;6.504;2022-09-09T04:11:45;12.32;;;6.70;;
52438;SDS011;38359;53.150;6.504;2022-09-09T04:14:11;11.27;;;6.40;;
52438;SDS011;38359;53.150;6.504;2022-09-09T04:16:37;16.30;;;6.60;;
52438;SDS011;38359;53.150;6.504;2022-09-09T04:19:04;12.23;;;6.78;;
52438;SDS011;38359;53.150;6.504;2022-09-09T04:21:31;9.25;;;6.30;;
52438;SDS011;38359;53.150;6.504;2022-09-09T04:23:57;9.85;;;6.20;;
52438;SDS011;38359;53.150;6.504;2022-09-09T04:26:23;10.85;;;5.32;;
52438;SDS011;38359;53.150;6.504;2022-09-09T04:28:49;12.57;;;6.43;;
52438;SDS011;38359;53.150;6.504;2022-09-09T04:31:21;10.50;;;5.90;;
52438;SDS011;38359;53.150;6.504;2022-09-09T04:33:51;8.63;;;5.90;;
52438;SDS011;38359;53.150;6.504;2022-09-09T04:36:17;10.25;;;5.72;;
52438;SDS011;38359;53.150;6.504;2022-09-09T04:38:45;8.40;;;5.72;;
52438;SDS011;38359;53.150;6.504;2022-09-09T04:41:11;9.90;;;6.07;;
52438;SDS011;38359;53.150;6.504;2022-09-09T04:43:38;10.20;;;6.72;;
52438;SDS011;38359;53.150;6.504;2022-09-09T04:46:04;10.70;;;6.40;;
52438;SDS011;38359;53.150;6.504;2022-09-09T04:48:31;10.00;;;5.70;;
52438;SDS011;38359;53.150;6.504;2022-09-09T04:50:58;7.15;;;5.97;;
52438;SDS011;38359;53.150;6.504;2022-09-09T04:53:32;10.63;;;6.40;;
52438;SDS011;38359;53.150;6.504;2022-09-09T04:56:06;8.82;;;6.65;;
52438;SDS011;38359;53.150;6.504;2022-09-09T04:58:39;11.07;;;6.50;;
52438;SDS011;38359;53.150;6.504;2022-09-09T05:01:08;12.10;;;7.00;;
52438;SDS011;38359;53.150;6.504;2022-09-09T05:03:37;14.23;;;7.18;;
52438;SDS011;38359;53.150;6.504;2022-09-09T05:06:07;19.45;;;7.88;;
52438;SDS011;38359;53.150;6.504;2022-09-09T05:08:36;11.10;;;6.95;;
52438;SDS011;38359;53.150;6.504;2022-09-09T05:11:04;15.18;;;8.05;;
52438;SDS011;38359;53.150;6.504;2022-09-09T05:13:48;11.18;;;8.15;;
52438;SDS011;38359;53.150;6.504;2022-09-09T05:16:15;13.27;;;7.93;;
52438;SDS011;38359;53.150;6.504;2022-09-09T05:18:42;13.52;;;8.30;;
52438;SDS011;38359;53.150;6.504;2022-09-09T05:21:09;11.07;;;7.90;;
52438;SDS011;38359;53.150;6.504;2022-09-09T05:23:36;11.68;;;7.90;;
52438;SDS011;38359;53.150;6.504;2022-09-09T05:26:02;12.35;;;8.63;;
52438;SDS011;38359;53.150;6.504;2022-09-09T05:28:29;13.77;;;8.77;;
52438;SDS011;38359;53.150;6.504;2022-09-09T05:30:56;10.63;;;8.25;;
52438;SDS011;38359;53.150;6.504;2022-09-09T05:33:29;14.70;;;9.40;;
52438;SDS011;38359;53.150;6.504;2022-09-09T05:35:59;14.10;;;8.63;;
52438;SDS011;38359;53.150;6.504;2022-09-09T05:38:31;13.85;;;8.98;;
52438;SDS011;38359;53.150;6.504;2022-09-09T05:40:58;13.20;;;9.40;;
52438;SDS011;38359;53.150;6.504;2022-09-09T05:43:25;15.05;;;9.70;;
52438;SDS011;38359;53.150;6.504;2022-09-09T05:46:08;17.52;;;10.25;;
52438;SDS011;38359;53.150;6.504;2022-09-09T05:48:37;14.40;;;9.98;;
52438;SDS011;38359;53.150;6.504;2022-09-09T05:51:06;13.02;;;9.68;;
52438;SDS011;38359;53.150;6.504;2022-09-09T05:53:35;19.10;;;11.02;;
52438;SDS011;38359;53.150;6.504;2022-09-09T05:56:09;11.98;;;9.50;;
52438;SDS011;38359;53.150;6.504;2022-09-09T05:58:39;13.85;;;9.65;;
52438;SDS011;38359;53.150;6.504;2022-09-09T06:01:12;14.43;;;9.93;;
52438;SDS011;38359;53.150;6.504;2022-09-09T06:03:41;14.35;;;9.73;;
52438;SDS011;38359;53.150;6.504;2022-09-09T06:06:10;14.57;;;10.60;;
52438;SDS011;38359;53.150;6.504;2022-09-09T06:08:43;15.20;;;10.15;;
52438;SDS011;38359;53.150;6.504;2022-09-09T06:11:11;13.10;;;8.90;;
52438;SDS011;38359;53.150;6.504;2022-09-09T06:13:42;14.57;;;9.98;;
52438;SDS011;38359;53.150;6.504;2022-09-09T06:16:12;15.63;;;10.68;;
52438;SDS011;38359;53.150;6.504;2022-09-09T06:18:42;13.02;;;9.60;;
52438;SDS011;38359;53.150;6.504;2022-09-09T06:21:10;13.43;;;9.48;;
52438;SDS011;38359;53.150;6.504;2022-09-09T06:23:45;16.02;;;10.38;;
52438;SDS011;38359;53.150;6.504;2022-09-09T06:26:29;14.63;;;9.25;;
52438;SDS011;38359;53.150;6.504;2022-09-09T06:28:57;12.65;;;9.85;;
52438;SDS011;38359;53.150;6.504;2022-09-09T06:31:27;12.65;;;8.93;;
52438;SDS011;38359;53.150;6.504;2022-09-09T06:33:59;12.40;;;8.77;;
52438;SDS011;38359;53.150;6.504;2022-09-09T06:36:26;16.00;;;9.10;;
52438;SDS011;38359;53.150;6.504;2022-09-09T06:38:58;11.45;;;9.05;;
52438;SDS011;38359;53.150;6.504;2022-09-09T06:41:25;15.25;;;9.10;;
52438;SDS011;38359;53.150;6.504;2022-09-09T06:43:54;12.63;;;8.80;;
52438;SDS011;38359;53.150;6.504;2022-09-09T06:46:32;16.50;;;9.13;;
52438;SDS011;38359;53.150;6.504;2022-09-09T06:48:58;12.30;;;9.93;;
52438;SDS011;38359;53.150;6.504;2022-09-09T06:51:28;12.65;;;8.27;;
52438;SDS011;38359;53.150;6.504;2022-09-09T06:53:58;14.30;;;8.73;;
52438;SDS011;38359;53.150;6.504;2022-09-09T06:56:26;10.13;;;7.80;;
52438;SDS011;38359;53.150;6.504;2022-09-09T06:59:05;14.20;;;9.30;;
52438;SDS011;38359;53.150;6.504;2022-09-09T07:01:41;13.70;;;8.35;;
52438;SDS011;38359;53.150;6.504;2022-09-09T07:04:18;12.05;;;8.80;;
52438;SDS011;38359;53.150;6.504;2022-09-09T07:06:44;11.88;;;8.02;;
52438;SDS011;38359;53.150;6.504;2022-09-09T07:09:12;12.60;;;8.68;;
52438;SDS011;38359;53.150;6.504;2022-09-09T07:11:41;12.82;;;8.02;;
52438;SDS011;38359;53.150;6.504;2022-09-09T07:14:12;12.50;;;7.53;;
52438;SDS011;38359;53.150;6.504;2022-09-09T07:16:39;10.43;;;7.50;;
52438;SDS011;38359;53.150;6.504;2022-09-09T07:19:06;10.25;;;8.05;;
52438;SDS011;38359;53.150;6.504;2022-09-09T07:21:33;15.00;;;8.32;;
52438;SDS011;38359;53.150;6.504;2022-09-09T07:23:59;11.10;;;8.27;;
52438;SDS011;38359;53.150;6.504;2022-09-09T07:26:28;12.50;;;8.15;;
52438;SDS011;38359;53.150;6.504;2022-09-09T07:28:55;9.98;;;7.80;;
52438;SDS011;38359;53.150;6.504;2022-09-09T07:31:25;10.38;;;7.25;;
52438;SDS011;38359;53.150;6.504;2022-09-09T07:33:57;12.50;;;7.72;;
52438;SDS011;38359;53.150;6.504;2022-09-09T07:36:34;14.70;;;8.60;;
52438;SDS011;38359;53.150;6.504;2022-09-09T07:39:04;13.95;;;7.65;;
52438;SDS011;38359;53.150;6.504;2022-09-09T07:41:35;8.73;;;6.55;;
52438;SDS011;38359;53.150;6.504;2022-09-09T07:44:14;11.52;;;7.25;;
52438;SDS011;38359;53.150;6.504;2022-09-09T07:46:48;9.07;;;6.95;;
52438;SDS011;38359;53.150;6.504;2022-09-09T07:49:14;10.15;;;7.57;;
52438;SDS011;38359;53.150;6.504;2022-09-09T07:51:41;10.38;;;6.60;;
52438;SDS011;38359;53.150;6.504;2022-09-09T07:54:11;10.52;;;6.50;;
52438;SDS011;38359;53.150;6.504;2022-09-09T07:56:40;10.65;;;7.20;;
52438;SDS011;38359;53.150;6.504;2022-09-09T07:59:07;9.77;;;6.55;;
52438;SDS011;38359;53.150;6.504;2022-09-09T08:01:53;11.15;;;6.50;;
52438;SDS011;38359;53.150;6.504;2022-09-09T08:04:19;10.05;;;6.32;;
52438;SDS011;38359;53.150;6.504;2022-09-09T08:06:48;10.40;;;6.85;;
52438;SDS011;38359;53.150;6.504;2022-09-09T08:09:19;8.50;;;6.13;;
52438;SDS011;38359;53.150;6.504;2022-09-09T08:11:46;9.65;;;5.72;;
52438;SDS011;38359;53.150;6.504;2022-09-09T08:14:12;11.70;;;6.30;;
52438;SDS011;38359;53.150;6.504;2022-09-09T08:16:40;9.13;;;5.85;;
52438;SDS011;38359;53.150;6.504;2022-09-09T08:19:09;7.30;;;5.78;;
52438;SDS011;38359;53.150;6.504;2022-09-09T08:21:36;9.05;;;6.00;;
52438;SDS011;38359;53.150;6.504;2022-09-09T08:24:05;8.65;;;5.82;;
52438;SDS011;38359;53.150;6.504;2022-09-09T08:26:37;7.65;;;5.72;;
52438;SDS011;38359;53.150;6.504;2022-09-09T08:29:07;8.65;;;5.63;;
52438;SDS011;38359;53.150;6.504;2022-09-09T08:32:08;8.02;;;5.55;;
52438;SDS011;38359;53.150;6.504;2022-09-09T08:34:27;9.93;;;5.75;;
52438;SDS011;38359;53.150;6.504;2022-09-09T08:36:54;11.10;;;5.68;;
52438;SDS011;38359;53.150;6.504;2022-09-09T08:39:21;8.88;;;5.47;;
52438;SDS011;38359;53.150;6.504;2022-09-09T08:47:35;5.53;;;4.95;;
52438;SDS011;38359;53.150;6.504;2022-09-09T08:50:36;6.38;;;5.68;;
52438;SDS011;38359;53.150;6.504;2022-09-09T08:53:04;8.30;;;5.40;;
52438;SDS011;38359;53.150;6.504;2022-09-09T08:55:52;6.78;;;4.75;;
52438;SDS011;38359;53.150;6.504;2022-09-09T08:58:25;8.50;;;5.05;;
52438;SDS011;38359;53.150;6.504;2022-09-09T09:09:21;7.15;;;5.00;;
52438;SDS011;38359;53.150;6.504;2022-09-09T09:11:59;6.93;;;4.90;;
52438;SDS011;38359;53.150;6.504;2022-09-09T09:14:47;13.30;;;4.95;;
52438;SDS011;38359;53.150;6.504;2022-09-09T09:17:14;7.05;;;4.53;;
52438;SDS011;38359;53.150;6.504;2022-09-09T09:19:46;9.80;;;4.45;;
52438;SDS011;38359;53.150;6.504;2022-09-09T09:22:35;8.38;;;4.70;;
52438;SDS011;38359;53.150;6.504;2022-09-09T09:30:35;11.23;;;3.92;;
52438;SDS011;38359;53.150;6.504;2022-09-09T09:35:51;7.20;;;3.65;;
52438;SDS011;38359;53.150;6.504;2022-09-09T09:38:22;10.40;;;4.28;;
52438;SDS011;38359;53.150;6.504;2022-09-09T09:40:54;9.15;;;3.78;;
52438;SDS011;38359;53.150;6.504;2022-09-09T09:46:17;7.05;;;3.42;;
52438;SDS011;38359;53.150;6.504;2022-09-09T09:49:00;10.20;;;3.22;;
52438;SDS011;38359;53.150;6.504;2022-09-09T09:51:30;10.82;;;3.30;;
52438;SDS011;38359;53.150;6.504;2022-09-09T09:54:03;8.15;;;3.10;;
52438;SDS011;38359;53.150;6.504;2022-09-09T09:56:54;13.10;;;3.60;;
52438;SDS011;38359;53.150;6.504;2022-09-09T09:59:21;13.45;;;3.33;;
52438;SDS011;38359;53.150;6.504;2022-09-09T10:01:53;13.47;;;3.20;;
52438;SDS011;38359;53.150;6.504;2022-09-09T10:04:20;8.02;;;3.30;;
52438;SDS011;38359;53.150;6.504;2022-09-09T10:06:48;9.82;;;3.17;;
52438;SDS011;38359;53.150;6.504;2022-09-09T10:09:33;9.60;;;3.58;;
52438;SDS011;38359;53.150;6.504;2022-09-09T10:12:08;7.18;;;2.72;;
52438;SDS011;38359;53.150;6.504;2022-09-09T10:18:04;8.00;;;2.67;;
52438;SDS011;38359;53.150;6.504;2022-09-09T10:20:48;13.60;;;2.30;;
52438;SDS011;38359;53.150;6.504;2022-09-09T10:38:12;9.63;;;2.22;;
52438;SDS011;38359;53.150;6.504;2022-09-09T10:40:46;7.70;;;1.88;;
52438;SDS011;38359;53.150;6.504;2022-09-09T10:43:38;7.72;;;2.25;;
52438;SDS011;38359;53.150;6.504;2022-09-09T10:49:19;9.30;;;2.05;;
52438;SDS011;38359;53.150;6.504;2022-09-09T10:52:15;5.13;;;1.48;;
52438;SDS011;38359;53.150;6.504;2022-09-09T10:55:24;6.68;;;1.80;;
52438;SDS011;38359;53.150;6.504;2022-09-09T10:57:55;7.25;;;1.92;;
52438;SDS011;38359;53.150;6.504;2022-09-09T11:00:24;8.73;;;2.00;;
52438;SDS011;38359;53.150;6.504;2022-09-09T11:03:05;6.43;;;1.50;;
52438;SDS011;38359;53.150;6.504;2022-09-09T11:05:51;7.35;;;1.55;;
52438;SDS011;38359;53.150;6.504;2022-09-09T11:08:26;7.45;;;2.28;;
52438;SDS011;38359;53.150;6.504;2022-09-09T11:10:58;5.53;;;1.60;;
52438;SDS011;38359;53.150;6.504;2022-09-09T11:16:53;3.75;;;1.20;;
52438;SDS011;38359;53.150;6.504;2022-09-09T11:22:14;10.82;;;1.70;;
52438;SDS011;38359;53.150;6.504;2022-09-09T11:31:02;4.40;;;1.50;;
52438;SDS011;38359;53.150;6.504;2022-09-09T11:34:12;5.97;;;2.08;;
52438;SDS011;38359;53.150;6.504;2022-09-09T11:36:54;2.33;;;1.27;;
52438;SDS011;38359;53.150;6.504;2022-09-09T11:39:52;6.72;;;1.60;;
52438;SDS011;38359;53.150;6.504;2022-09-09T11:42:34;6.13;;;1.90;;
52438;SDS011;38359;53.150;6.504;2022-09-09T11:45:20;5.40;;;1.65;;
52438;SDS011;38359;53.150;6.504;2022-09-09T11:47:54;6.57;;;1.67;;
52438;SDS011;38359;53.150;6.504;2022-09-09T11:50:27;5.22;;;1.65;;
52438;SDS011;38359;53.150;6.504;2022-09-09T11:53:03;6.00;;;1.67;;
52438;SDS011;38359;53.150;6.504;2022-09-09T11:55:44;4.38;;;1.33;;
52438;SDS011;38359;53.150;6.504;2022-09-09T12:00:37;6.57;;;1.45;;
52438;SDS011;38359;53.150;6.504;2022-09-09T12:08:51;6.03;;;1.60;;
52438;SDS011;38359;53.150;6.504;2022-09-09T12:11:26;6.75;;;1.38;;
52438;SDS011;38359;53.150;6.504;2022-09-09T12:13:54;4.88;;;1.85;;
52438;SDS011;38359;53.150;6.504;2022-09-09T12:16:29;8.10;;;1.50;;
52438;SDS011;38359;53.150;6.504;2022-09-09T12:22:03;9.35;;;1.55;;
52438;SDS011;38359;53.150;6.504;2022-09-09T12:27:36;5.32;;;1.85;;
52438;SDS011;38359;53.150;6.504;2022-09-09T12:30:14;3.67;;;1.00;;
52438;SDS011;38359;53.150;6.504;2022-09-09T12:32:41;3.53;;;1.25;;
52438;SDS011;38359;53.150;6.504;2022-09-09T12:35:11;2.85;;;1.10;;
52438;SDS011;38359;53.150;6.504;2022-09-09T12:37:51;6.35;;;1.30;;
52438;SDS011;38359;53.150;6.504;2022-09-09T12:40:24;7.90;;;1.40;;
52438;SDS011;38359;53.150;6.504;2022-09-09T12:43:00;6.60;;;1.40;;
52438;SDS011;38359;53.150;6.504;2022-09-09T12:45:47;9.18;;;1.73;;
52438;SDS011;38359;53.150;6.504;2022-09-09T12:48:16;4.63;;;1.38;;
52438;SDS011;38359;53.150;6.504;2022-09-09T12:50:46;6.20;;;1.50;;
52438;SDS011;38359;53.150;6.504;2022-09-09T12:56:29;5.32;;;1.10;;
52438;SDS011;38359;53.150;6.504;2022-09-09T12:58:51;6.22;;;1.60;;
52438;SDS011;38359;53.150;6.504;2022-09-09T13:01:29;5.03;;;1.15;;
52438;SDS011;38359;53.150;6.504;2022-09-09T13:03:58;4.57;;;1.23;;
52438;SDS011;38359;53.150;6.504;2022-09-09T13:06:25;4.22;;;1.48;;
52438;SDS011;38359;53.150;6.504;2022-09-09T13:08:54;5.25;;;1.35;;
52438;SDS011;38359;53.150;6.504;2022-09-09T13:11:28;4.80;;;1.42;;
52438;SDS011;38359;53.150;6.504;2022-09-09T13:14:04;3.40;;;1.20;;
52438;SDS011;38359;53.150;6.504;2022-09-09T13:16:32;6.63;;;1.40;;
52438;SDS011;38359;53.150;6.504;2022-09-09T13:19:01;4.25;;;1.20;;
52438;SDS011;38359;53.150;6.504;2022-09-09T13:21:39;4.53;;;1.57;;
52438;SDS011;38359;53.150;6.504;2022-09-09T13:24:06;5.07;;;1.40;;
52438;SDS011;38359;53.150;6.504;2022-09-09T13:27:00;4.63;;;1.38;;
52438;SDS011;38359;53.150;6.504;2022-09-09T13:29:51;4.22;;;1.48;;
52438;SDS011;38359;53.150;6.504;2022-09-09T13:32:23;5.43;;;1.67;;
52438;SDS011;38359;53.150;6.504;2022-09-09T13:35:01;4.50;;;1.77;;
52438;SDS011;38359;53.150;6.504;2022-09-09T13:37:37;5.00;;;1.50;;
52438;SDS011;38359;53.150;6.504;2022-09-09T13:40:06;3.78;;;1.15;;
52438;SDS011;38359;53.150;6.504;2022-09-09T13:42:43;5.85;;;1.40;;
52438;SDS011;38359;53.150;6.504;2022-09-09T13:45:20;6.95;;;1.30;;
52438;SDS011;38359;53.150;6.504;2022-09-09T13:47:48;4.70;;;1.23;;
52438;SDS011;38359;53.150;6.504;2022-09-09T13:52:49;6.18;;;1.13;;
52438;SDS011;38359;53.150;6.504;2022-09-09T13:55:20;6.20;;;1.55;;
52438;SDS011;38359;53.150;6.504;2022-09-09T13:57:58;3.22;;;1.58;;
52438;SDS011;38359;53.150;6.504;2022-09-09T14:00:26;3.90;;;0.93;;
52438;SDS011;38359;53.150;6.504;2022-09-09T14:02:55;6.03;;;1.05;;
52438;SDS011;38359;53.150;6.504;2022-09-09T14:05:21;4.28;;;1.38;;
52438;SDS011;38359;53.150;6.504;2022-09-09T14:07:48;6.18;;;1.60;;
52438;SDS011;38359;53.150;6.504;2022-09-09T14:10:14;3.78;;;1.30;;
52438;SDS011;38359;53.150;6.504;2022-09-09T14:12:40;5.07;;;1.55;;
52438;SDS011;38359;53.150;6.504;2022-09-09T14:15:07;3.28;;;1.23;;
52438;SDS011;38359;53.150;6.504;2022-09-09T14:17:35;5.03;;;1.50;;
52438;SDS011;38359;53.150;6.504;2022-09-09T14:20:04;6.60;;;1.55;;
52438;SDS011;38359;53.150;6.504;2022-09-09T14:22:34;4.13;;;0.90;;
52438;SDS011;38359;53.150;6.504;2022-09-09T14:25:01;2.25;;;1.00;;
52438;SDS011;38359;53.150;6.504;2022-09-09T14:27:28;4.90;;;1.25;;
52438;SDS011;38359;53.150;6.504;2022-09-09T14:29:55;3.05;;;1.15;;
52438;SDS011;38359;53.150;6.504;2022-09-09T14:32:21;2.92;;;0.90;;
52438;SDS011;38359;53.150;6.504;2022-09-09T14:34:47;4.60;;;1.10;;
52438;SDS011;38359;53.150;6.504;2022-09-09T14:37:15;2.75;;;0.70;;
52438;SDS011;38359;53.150;6.504;2022-09-09T14:39:41;2.83;;;0.90;;
52438;SDS011;38359;53.150;6.504;2022-09-09T14:42:12;2.47;;;0.80;;
52438;SDS011;38359;53.150;6.504;2022-09-09T14:44:39;3.00;;;0.95;;
52438;SDS011;38359;53.150;6.504;2022-09-09T14:47:05;2.78;;;1.02;;
52438;SDS011;38359;53.150;6.504;2022-09-09T14:49:33;1.65;;;0.80;;
52438;SDS011;38359;53.150;6.504;2022-09-09T14:51:59;4.47;;;1.00;;
52438;SDS011;38359;53.150;6.504;2022-09-09T14:54:25;2.72;;;0.60;;
52438;SDS011;38359;53.150;6.504;2022-09-09T14:56:51;3.65;;;1.10;;
52438;SDS011;38359;53.150;6.504;2022-09-09T14:59:17;3.47;;;1.13;;
52438;SDS011;38359;53.150;6.504;2022-09-09T15:01:43;6.80;;;1.13;;
52438;SDS011;38359;53.150;6.504;2022-09-09T15:04:10;4.22;;;1.02;;
52438;SDS011;38359;53.150;6.504;2022-09-09T15:06:39;2.65;;;0.80;;
52438;SDS011;38359;53.150;6.504;2022-09-09T15:09:07;4.53;;;0.82;;
52438;SDS011;38359;53.150;6.504;2022-09-09T15:11:34;4.10;;;1.00;;
52438;SDS011;38359;53.150;6.504;2022-09-09T15:14:05;3.47;;;1.02;;
52438;SDS011;38359;53.150;6.504;2022-09-09T15:16:33;2.45;;;0.93;;
52438;SDS011;38359;53.150;6.504;2022-09-09T15:19:00;2.70;;;1.15;;
52438;SDS011;38359;53.150;6.504;2022-09-09T15:21:28;1.52;;;0.95;;
52438;SDS011;38359;53.150;6.504;2022-09-09T15:23:57;2.75;;;0.70;;
52438;SDS011;38359;53.150;6.504;2022-09-09T15:26:24;2.90;;;1.00;;
52438;SDS011;38359;53.150;6.504;2022-09-09T15:28:52;2.28;;;0.77;;
52438;SDS011;38359;53.150;6.504;2022-09-09T15:31:20;3.42;;;0.90;;
52438;SDS011;38359;53.150;6.504;2022-09-09T15:39:06;3.25;;;1.00;;
52438;SDS011;38359;53.150;6.504;2022-09-09T15:41:37;1.88;;;0.80;;
52438;SDS011;38359;53.150;6.504;2022-09-09T15:44:04;2.65;;;0.70;;
52438;SDS011;38359;53.150;6.504;2022-09-09T15:49:06;1.77;;;0.70;;
52438;SDS011;38359;53.150;6.504;2022-09-09T15:56:50;2.35;;;0.80;;
52438;SDS011;38359;53.150;6.504;2022-09-09T15:59:25;1.45;;;0.60;;
52438;SDS011;38359;53.150;6.504;2022-09-09T16:01:53;4.05;;;1.08;;
52438;SDS011;38359;53.150;6.504;2022-09-09T16:04:20;2.70;;;0.90;;
52438;SDS011;38359;53.150;6.504;2022-09-09T16:06:50;1.30;;;0.73;;
52438;SDS011;38359;53.150;6.504;2022-09-09T16:09:18;4.38;;;0.70;;
52438;SDS011;38359;53.150;6.504;2022-09-09T16:11:44;1.30;;;0.70;;
52438;SDS011;38359;53.150;6.504;2022-09-09T16:14:13;2.58;;;1.05;;
52438;SDS011;38359;53.150;6.504;2022-09-09T16:16:43;2.35;;;1.08;;
52438;SDS011;38359;53.150;6.504;2022-09-09T16:19:09;0.68;;;0.55;;
52438;SDS011;38359;53.150;6.504;2022-09-09T16:21:41;2.75;;;1.23;;
52438;SDS011;38359;53.150;6.504;2022-09-09T16:24:10;3.38;;;0.93;;
52438;SDS011;38359;53.150;6.504;2022-09-09T16:26:43;2.03;;;0.73;;
52438;SDS011;38359;53.150;6.504;2022-09-09T16:29:12;3.17;;;0.80;;
52438;SDS011;38359;53.150;6.504;2022-09-09T16:31:39;2.33;;;0.82;;
52438;SDS011;38359;53.150;6.504;2022-09-09T16:34:06;2.30;;;0.88;;
52438;SDS011;38359;53.150;6.504;2022-09-09T16:36:34;3.60;;;1.10;;
52438;SDS011;38359;53.150;6.504;2022-09-09T16:39:04;2.60;;;0.90;;
52438;SDS011;38359;53.150;6.504;2022-09-09T16:41:32;2.85;;;1.00;;
52438;SDS011;38359;53.150;6.504;2022-09-09T16:43:59;3.63;;;1.00;;
52438;SDS011;38359;53.150;6.504;2022-09-09T16:46:28;1.90;;;0.88;;
52438;SDS011;38359;53.150;6.504;2022-09-09T16:48:56;3.33;;;0.95;;
52438;SDS011;38359;53.150;6.504;2022-09-09T16:51:33;3.55;;;0.93;;
52438;SDS011;38359;53.150;6.504;2022-09-09T16:54:03;2.53;;;0.82;;
52438;SDS011;38359;53.150;6.504;2022-09-09T16:56:32;2.78;;;0.88;;
52438;SDS011;38359;53.150;6.504;2022-09-09T16:59:03;2.63;;;0.82;;
52438;SDS011;38359;53.150;6.504;2022-09-09T17:01:32;3.08;;;1.33;;
52438;SDS011;38359;53.150;6.504;2022-09-09T17:04:03;3.13;;;1.25;;
52438;SDS011;38359;53.150;6.504;2022-09-09T17:06:35;6.55;;;1.08;;
52438;SDS011;38359;53.150;6.504;2022-09-09T17:09:04;2.00;;;0.90;;
52438;SDS011;38359;53.150;6.504;2022-09-09T17:11:35;1.67;;;0.90;;
52438;SDS011;38359;53.150;6.504;2022-09-09T17:14:04;4.65;;;1.08;;
52438;SDS011;38359;53.150;6.504;2022-09-09T17:16:32;10.15;;;1.60;;
52438;SDS011;38359;53.150;6.504;2022-09-09T17:19:02;6.90;;;1.02;;
52438;SDS011;38359;53.150;6.504;2022-09-09T17:21:29;2.95;;;0.95;;
52438;SDS011;38359;53.150;6.504;2022-09-09T17:23:59;2.85;;;1.00;;
52438;SDS011;38359;53.150;6.504;2022-09-09T17:26:26;3.70;;;1.63;;
52438;SDS011;38359;53.150;6.504;2022-09-09T17:28:55;2.50;;;1.15;;
52438;SDS011;38359;53.150;6.504;2022-09-09T17:31:23;1.75;;;0.90;;
52438;SDS011;38359;53.150;6.504;2022-09-09T17:33:50;3.75;;;1.00;;